sensor_id;sensor_type;location;lat;lon;timestamp;P1;durP1;ratioP1;P2;durP2;ratioP2
51174;SDS011;37240;50.104;20.010;2023-04-01T00:01:37;2.40;;;1.52;;
51174;SDS011;37240;50.104;20.010;2023-04-01T00:06:37;2.08;;;1.35;;
51174;SDS011;37240;50.104;20.010;2023-04-01T00:11:38;4.25;;;1.83;;
51174;SDS011;37240;50.104;20.010;2023-04-01T00:16:39;3.45;;;1.75;;
51174;SDS011;37240;50.104;20.010;2023-04-01T00:21:39;6.78;;;1.55;;
51174;SDS011;37240;50.104;20.010;2023-04-01T00:26:40;2.38;;;1.60;;
51174;SDS011;37240;50.104;20.010;2023-04-01T00:31:40;3.80;;;1.80;;
51174;SDS011;37240;50.104;20.010;2023-04-01T00:36:41;2.88;;;1.60;;
51174;SDS011;37240;50.104;20.010;2023-04-01T00:41:41;7.05;;;2.15;;
51174;SDS011;37240;50.104;20.010;2023-04-01T00:46:42;7.15;;;2.72;;
51174;SDS011;37240;50.104;20.010;2023-04-01T00:51:43;2.67;;;1.67;;
51174;SDS011;37240;50.104;20.010;2023-04-01T00:56:48;5.20;;;1.63;;
51174;SDS011;37240;50.104;20.010;2023-04-01T01:02:05;1.88;;;1.77;;
51174;SDS011;37240;50.104;20.010;2023-04-01T01:34:14;6.43;;;2.47;;
51174;SDS011;37240;50.104;20.010;2023-04-01T01:39:41;2.90;;;1.80;;
51174;SDS011;37240;50.104;20.010;2023-04-01T01:44:44;1.50;;;1.40;;
51174;SDS011;37240;50.104;20.010;2023-04-01T01:49:47;1.80;;;1.70;;
51174;SDS011;37240;50.104;20.010;2023-04-01T01:54:50;7.00;;;1.65;;
51174;SDS011;37240;50.104;20.010;2023-04-01T01:59:52;2.83;;;1.73;;
51174;SDS011;37240;50.104;20.010;2023-04-01T02:04:56;10.50;;;1.77;;
51174;SDS011;37240;50.104;20.010;2023-04-01T02:09:58;4.38;;;2.47;;
51174;SDS011;37240;50.104;20.010;2023-04-01T02:20:06;5.53;;;2.03;;
51174;SDS011;37240;50.104;20.010;2023-04-01T02:25:13;3.17;;;1.63;;
51174;SDS011;37240;50.104;20.010;2023-04-01T02:30:17;1.92;;;1.60;;
51174;SDS011;37240;50.104;20.010;2023-04-01T02:35:19;3.50;;;1.95;;
51174;SDS011;37240;50.104;20.010;2023-04-01T02:40:19;10.50;;;1.80;;
51174;SDS011;37240;50.104;20.010;2023-04-01T02:45:20;2.78;;;1.65;;
51174;SDS011;37240;50.104;20.010;2023-04-01T02:50:21;3.03;;;1.70;;
51174;SDS011;37240;50.104;20.010;2023-04-01T02:55:21;6.25;;;2.40;;
51174;SDS011;37240;50.104;20.010;2023-04-01T03:00:22;7.40;;;1.85;;
51174;SDS011;37240;50.104;20.010;2023-04-01T03:05:23;5.75;;;2.53;;
51174;SDS011;37240;50.104;20.010;2023-04-01T03:10:23;5.72;;;2.20;;
51174;SDS011;37240;50.104;20.010;2023-04-01T03:15:24;7.15;;;2.33;;
51174;SDS011;37240;50.104;20.010;2023-04-01T03:20:24;5.13;;;1.90;;
51174;SDS011;37240;50.104;20.010;2023-04-01T03:25:25;4.65;;;1.83;;
51174;SDS011;37240;50.104;20.010;2023-04-01T03:30:26;5.75;;;2.05;;
51174;SDS011;37240;50.104;20.010;2023-04-01T03:35:26;2.30;;;1.77;;
51174;SDS011;37240;50.104;20.010;2023-04-01T03:40:27;4.75;;;2.05;;
51174;SDS011;37240;50.104;20.010;2023-04-01T03:45:28;3.80;;;2.25;;
51174;SDS011;37240;50.104;20.010;2023-04-01T03:50:28;3.00;;;2.00;;
51174;SDS011;37240;50.104;20.010;2023-04-01T03:55:29;4.30;;;2.40;;
51174;SDS011;37240;50.104;20.010;2023-04-01T04:00:29;10.73;;;2.92;;
51174;SDS011;37240;50.104;20.010;2023-04-01T04:05:30;5.53;;;2.28;;
51174;SDS011;37240;50.104;20.010;2023-04-01T04:10:30;5.45;;;1.83;;
51174;SDS011;37240;50.104;20.010;2023-04-01T04:15:31;3.78;;;1.88;;
51174;SDS011;37240;50.104;20.010;2023-04-01T04:20:31;2.60;;;2.00;;
51174;SDS011;37240;50.104;20.010;2023-04-01T04:25:32;4.03;;;2.25;;
51174;SDS011;37240;50.104;20.010;2023-04-01T04:30:32;5.18;;;2.38;;
51174;SDS011;37240;50.104;20.010;2023-04-01T04:35:33;5.82;;;1.70;;
51174;SDS011;37240;50.104;20.010;2023-04-01T04:40:35;3.58;;;1.85;;
51174;SDS011;37240;50.104;20.010;2023-04-01T04:45:36;4.15;;;2.17;;
51174;SDS011;37240;50.104;20.010;2023-04-01T04:50:37;5.22;;;2.50;;
51174;SDS011;37240;50.104;20.010;2023-04-01T04:55:43;5.25;;;2.42;;
51174;SDS011;37240;50.104;20.010;2023-04-01T05:00:45;2.33;;;1.98;;
51174;SDS011;37240;50.104;20.010;2023-04-01T05:05:50;7.63;;;2.53;;
51174;SDS011;37240;50.104;20.010;2023-04-01T05:10:52;4.38;;;1.90;;
51174;SDS011;37240;50.104;20.010;2023-04-01T05:15:53;15.77;;;2.47;;
51174;SDS011;37240;50.104;20.010;2023-04-01T05:20:54;10.18;;;2.83;;
51174;SDS011;37240;50.104;20.010;2023-04-01T05:25:55;3.58;;;1.85;;
51174;SDS011;37240;50.104;20.010;2023-04-01T05:30:57;5.82;;;2.60;;
51174;SDS011;37240;50.104;20.010;2023-04-01T05:36:06;7.50;;;2.45;;
51174;SDS011;37240;50.104;20.010;2023-04-01T05:41:08;6.47;;;2.67;;
51174;SDS011;37240;50.104;20.010;2023-04-01T05:46:08;5.53;;;2.05;;
51174;SDS011;37240;50.104;20.010;2023-04-01T05:51:15;10.88;;;1.92;;
51174;SDS011;37240;50.104;20.010;2023-04-01T05:56:15;4.68;;;2.50;;
51174;SDS011;37240;50.104;20.010;2023-04-01T06:01:16;7.90;;;2.70;;
51174;SDS011;37240;50.104;20.010;2023-04-01T06:06:23;8.18;;;2.85;;
51174;SDS011;37240;50.104;20.010;2023-04-01T06:11:28;8.20;;;2.42;;
51174;SDS011;37240;50.104;20.010;2023-04-01T06:43:10;8.73;;;2.80;;
51174;SDS011;37240;50.104;20.010;2023-04-01T06:54:16;7.57;;;2.28;;
51174;SDS011;37240;50.104;20.010;2023-04-01T06:59:25;8.00;;;2.42;;
51174;SDS011;37240;50.104;20.010;2023-04-01T07:04:29;7.35;;;2.38;;
51174;SDS011;37240;50.104;20.010;2023-04-01T07:09:35;8.25;;;2.90;;
51174;SDS011;37240;50.104;20.010;2023-04-01T07:14:39;14.60;;;2.45;;
51174;SDS011;37240;50.104;20.010;2023-04-01T07:19:44;7.57;;;2.63;;
51174;SDS011;37240;50.104;20.010;2023-04-01T07:24:48;7.25;;;2.65;;
51174;SDS011;37240;50.104;20.010;2023-04-01T07:29:49;5.68;;;2.60;;
51174;SDS011;37240;50.104;20.010;2023-04-01T07:45:31;11.27;;;2.67;;
51174;SDS011;37240;50.104;20.010;2023-04-01T08:01:17;6.22;;;2.35;;
51174;SDS011;37240;50.104;20.010;2023-04-01T08:07:15;20.35;;;11.18;;
51174;SDS011;37240;50.104;20.010;2023-04-01T08:22:45;8.57;;;1.75;;
51174;SDS011;37240;50.104;20.010;2023-04-01T08:28:15;6.22;;;1.80;;
51174;SDS011;37240;50.104;20.010;2023-04-01T08:33:24;9.52;;;2.53;;
51174;SDS011;37240;50.104;20.010;2023-04-01T08:38:29;3.67;;;1.88;;
51174;SDS011;37240;50.104;20.010;2023-04-01T09:00:29;6.65;;;1.77;;
51174;SDS011;37240;50.104;20.010;2023-04-01T09:05:36;3.70;;;1.60;;
51174;SDS011;37240;50.104;20.010;2023-04-01T09:16:22;4.32;;;2.00;;
51174;SDS011;37240;50.104;20.010;2023-04-01T09:42:48;2.50;;;1.80;;
51174;SDS011;37240;50.104;20.010;2023-04-01T09:48:18;8.65;;;2.15;;
51174;SDS011;37240;50.104;20.010;2023-04-01T09:53:34;5.15;;;2.00;;
51174;SDS011;37240;50.104;20.010;2023-04-01T10:25:39;11.55;;;2.65;;
51174;SDS011;37240;50.104;20.010;2023-04-01T11:23:32;6.72;;;2.00;;
51174;SDS011;37240;50.104;20.010;2023-04-01T11:28:59;11.25;;;2.65;;
51174;SDS011;37240;50.104;20.010;2023-04-01T11:39:58;2.63;;;2.15;;
51174;SDS011;37240;50.104;20.010;2023-04-01T11:45:15;1.70;;;1.50;;
51174;SDS011;37240;50.104;20.010;2023-04-01T12:06:35;5.18;;;2.00;;
51174;SDS011;37240;50.104;20.010;2023-04-01T12:17:15;2.85;;;2.00;;
51174;SDS011;37240;50.104;20.010;2023-04-01T12:27:50;2.65;;;1.95;;
51174;SDS011;37240;50.104;20.010;2023-04-01T13:11:02;30.80;;;17.00;;
51174;SDS011;37240;50.104;20.010;2023-04-01T13:53:30;2.20;;;1.93;;
51174;SDS011;37240;50.104;20.010;2023-04-01T14:09:11;2.22;;;1.20;;
51174;SDS011;37240;50.104;20.010;2023-04-01T14:14:36;1.33;;;1.25;;
51174;SDS011;37240;50.104;20.010;2023-04-01T14:41:47;1.98;;;1.50;;
51174;SDS011;37240;50.104;20.010;2023-04-01T14:47:25;2.85;;;1.58;;
51174;SDS011;37240;50.104;20.010;2023-04-01T14:52:31;4.10;;;2.10;;
51174;SDS011;37240;50.104;20.010;2023-04-01T14:57:33;4.28;;;3.17;;
51174;SDS011;37240;50.104;20.010;2023-04-01T15:24:20;7.65;;;3.75;;
51174;SDS011;37240;50.104;20.010;2023-04-01T15:35:16;7.63;;;3.92;;
51174;SDS011;37240;50.104;20.010;2023-04-01T15:40:15;2.00;;;1.77;;
51174;SDS011;37240;50.104;20.010;2023-04-01T16:00:58;4.05;;;2.60;;
51174;SDS011;37240;50.104;20.010;2023-04-01T16:22:08;13.77;;;8.00;;
51174;SDS011;37240;50.104;20.010;2023-04-01T16:27:46;5.88;;;4.18;;
51174;SDS011;37240;50.104;20.010;2023-04-01T16:32:56;8.40;;;3.47;;
51174;SDS011;37240;50.104;20.010;2023-04-01T17:05:06;9.73;;;4.72;;
51174;SDS011;37240;50.104;20.010;2023-04-01T17:10:18;8.13;;;4.77;;
51174;SDS011;37240;50.104;20.010;2023-04-01T17:15:36;7.70;;;4.30;;
51174;SDS011;37240;50.104;20.010;2023-04-01T17:20:58;7.32;;;4.97;;
51174;SDS011;37240;50.104;20.010;2023-04-01T17:51:48;13.40;;;5.95;;
51174;SDS011;37240;50.104;20.010;2023-04-01T18:08:01;41.88;;;21.50;;
51174;SDS011;37240;50.104;20.010;2023-04-01T18:18:48;20.58;;;9.93;;
51174;SDS011;37240;50.104;20.010;2023-04-01T18:23:51;18.27;;;8.57;;
51174;SDS011;37240;50.104;20.010;2023-04-01T18:28:58;37.03;;;18.27;;
51174;SDS011;37240;50.104;20.010;2023-04-01T18:39:42;34.90;;;15.15;;
51174;SDS011;37240;50.104;20.010;2023-04-01T18:44:55;32.35;;;13.45;;
51174;SDS011;37240;50.104;20.010;2023-04-01T18:50:15;28.33;;;14.18;;
51174;SDS011;37240;50.104;20.010;2023-04-01T18:55:35;55.70;;;25.45;;
51174;SDS011;37240;50.104;20.010;2023-04-01T19:00:43;59.83;;;28.10;;
51174;SDS011;37240;50.104;20.010;2023-04-01T19:05:50;52.65;;;27.73;;
51174;SDS011;37240;50.104;20.010;2023-04-01T19:11:03;29.02;;;16.60;;
51174;SDS011;37240;50.104;20.010;2023-04-01T19:21:53;35.60;;;20.83;;
51174;SDS011;37240;50.104;20.010;2023-04-01T19:27:14;28.13;;;16.98;;
51174;SDS011;37240;50.104;20.010;2023-04-01T19:37:40;29.73;;;16.35;;
51174;SDS011;37240;50.104;20.010;2023-04-01T19:43:02;31.85;;;16.38;;
51174;SDS011;37240;50.104;20.010;2023-04-01T19:53:56;47.00;;;20.85;;
51174;SDS011;37240;50.104;20.010;2023-04-01T20:04:55;34.38;;;18.98;;
51174;SDS011;37240;50.104;20.010;2023-04-01T20:10:01;45.72;;;20.55;;
51174;SDS011;37240;50.104;20.010;2023-04-01T20:20:37;65.65;;;34.28;;
51174;SDS011;37240;50.104;20.010;2023-04-01T20:25:55;42.72;;;23.08;;
51174;SDS011;37240;50.104;20.010;2023-04-01T20:36:14;39.03;;;18.77;;
51174;SDS011;37240;50.104;20.010;2023-04-01T20:52:29;40.10;;;20.13;;
51174;SDS011;37240;50.104;20.010;2023-04-01T20:57:36;37.35;;;18.92;;
51174;SDS011;37240;50.104;20.010;2023-04-01T21:02:59;41.30;;;20.35;;
51174;SDS011;37240;50.104;20.010;2023-04-01T21:08:14;42.45;;;19.83;;
51174;SDS011;37240;50.104;20.010;2023-04-01T22:07:02;47.28;;;22.55;;
51174;SDS011;37240;50.104;20.010;2023-04-01T22:12:35;33.38;;;19.52;;
51174;SDS011;37240;50.104;20.010;2023-04-01T22:17:58;79.78;;;41.28;;
51174;SDS011;37240;50.104;20.010;2023-04-01T22:28:59;43.17;;;22.58;;
51174;SDS011;37240;50.104;20.010;2023-04-01T22:34:26;37.08;;;18.75;;
51174;SDS011;37240;50.104;20.010;2023-04-01T22:50:07;48.47;;;22.60;;
51174;SDS011;37240;50.104;20.010;2023-04-01T22:55:25;36.75;;;20.48;;
51174;SDS011;37240;50.104;20.010;2023-04-01T23:00:32;42.53;;;21.80;;
51174;SDS011;37240;50.104;20.010;2023-04-01T23:05:40;38.40;;;20.08;;
51174;SDS011;37240;50.104;20.010;2023-04-01T23:10:49;35.72;;;19.92;;
51174;SDS011;37240;50.104;20.010;2023-04-01T23:15:56;47.30;;;21.38;;
51174;SDS011;37240;50.104;20.010;2023-04-01T23:31:57;37.97;;;19.67;;
51174;SDS011;37240;50.104;20.010;2023-04-01T23:37:00;52.88;;;25.02;;
51174;SDS011;37240;50.104;20.010;2023-04-01T23:42:05;44.90;;;22.60;;
51174;SDS011;37240;50.104;20.010;2023-04-01T23:47:14;46.05;;;22.05;;
51174;SDS011;37240;50.104;20.010;2023-04-01T23:52:22;40.95;;;20.83;;
51174;SDS011;37240;50.104;20.010;2023-04-01T23:57:29;43.10;;;21.88;;
